sensor_id;sensor_type;location;lat;lon;timestamp;P1;durP1;ratioP1;P2;durP2;ratioP2
52124;SDS011;38119;52.710;6.398;2023-07-13T00:02:22;9.52;;;2.80;;
52124;SDS011;38119;52.710;6.398;2023-07-13T00:04:49;9.00;;;2.93;;
52124;SDS011;38119;52.710;6.398;2023-07-13T00:07:15;12.65;;;2.67;;
52124;SDS011;38119;52.710;6.398;2023-07-13T00:09:44;12.30;;;3.55;;
52124;SDS011;38119;52.710;6.398;2023-07-13T00:12:27;13.35;;;2.85;;
52124;SDS011;38119;52.710;6.398;2023-07-13T00:14:59;10.40;;;2.80;;
52124;SDS011;38119;52.710;6.398;2023-07-13T00:17:27;12.10;;;2.90;;
52124;SDS011;38119;52.710;6.398;2023-07-13T00:19:54;10.85;;;2.80;;
52124;SDS011;38119;52.710;6.398;2023-07-13T00:22:21;9.17;;;2.93;;
52124;SDS011;38119;52.710;6.398;2023-07-13T00:24:47;11.48;;;2.85;;
52124;SDS011;38119;52.710;6.398;2023-07-13T00:27:12;11.85;;;2.95;;
52124;SDS011;38119;52.710;6.398;2023-07-13T00:29:39;10.43;;;2.97;;
52124;SDS011;38119;52.710;6.398;2023-07-13T00:32:05;10.73;;;3.07;;
52124;SDS011;38119;52.710;6.398;2023-07-13T00:34:32;8.32;;;2.80;;
52124;SDS011;38119;52.710;6.398;2023-07-13T00:36:58;10.98;;;2.80;;
52124;SDS011;38119;52.710;6.398;2023-07-13T00:39:24;10.50;;;3.20;;
52124;SDS011;38119;52.710;6.398;2023-07-13T00:41:49;9.65;;;2.83;;
52124;SDS011;38119;52.710;6.398;2023-07-13T00:44:19;10.85;;;2.78;;
52124;SDS011;38119;52.710;6.398;2023-07-13T00:46:46;10.85;;;3.28;;
52124;SDS011;38119;52.710;6.398;2023-07-13T00:49:13;11.13;;;2.90;;
52124;SDS011;38119;52.710;6.398;2023-07-13T00:51:55;10.52;;;3.08;;
52124;SDS011;38119;52.710;6.398;2023-07-13T00:54:24;10.35;;;2.92;;
52124;SDS011;38119;52.710;6.398;2023-07-13T00:56:57;10.50;;;3.05;;
52124;SDS011;38119;52.710;6.398;2023-07-13T00:59:25;11.15;;;3.10;;
52124;SDS011;38119;52.710;6.398;2023-07-13T01:01:51;9.50;;;3.05;;
52124;SDS011;38119;52.710;6.398;2023-07-13T01:04:17;8.90;;;2.70;;
52124;SDS011;38119;52.710;6.398;2023-07-13T01:06:44;9.07;;;3.05;;
52124;SDS011;38119;52.710;6.398;2023-07-13T01:09:11;9.50;;;2.95;;
52124;SDS011;38119;52.710;6.398;2023-07-13T01:11:38;10.27;;;2.80;;
52124;SDS011;38119;52.710;6.398;2023-07-13T01:14:04;11.05;;;3.08;;
52124;SDS011;38119;52.710;6.398;2023-07-13T01:16:31;9.88;;;3.10;;
52124;SDS011;38119;52.710;6.398;2023-07-13T01:18:58;10.18;;;3.03;;
52124;SDS011;38119;52.710;6.398;2023-07-13T01:21:26;11.20;;;3.05;;
52124;SDS011;38119;52.710;6.398;2023-07-13T01:23:53;9.50;;;3.00;;
52124;SDS011;38119;52.710;6.398;2023-07-13T01:26:19;9.98;;;3.22;;
52124;SDS011;38119;52.710;6.398;2023-07-13T01:28:45;11.35;;;3.10;;
52124;SDS011;38119;52.710;6.398;2023-07-13T01:31:10;10.70;;;3.05;;
52124;SDS011;38119;52.710;6.398;2023-07-13T01:33:37;13.38;;;3.33;;
52124;SDS011;38119;52.710;6.398;2023-07-13T01:36:05;11.13;;;3.42;;
52124;SDS011;38119;52.710;6.398;2023-07-13T01:38:32;13.15;;;3.15;;
52124;SDS011;38119;52.710;6.398;2023-07-13T01:40:58;11.07;;;3.45;;
52124;SDS011;38119;52.710;6.398;2023-07-13T01:43:24;10.10;;;3.08;;
52124;SDS011;38119;52.710;6.398;2023-07-13T01:45:50;13.02;;;3.40;;
52124;SDS011;38119;52.710;6.398;2023-07-13T01:48:16;10.03;;;3.30;;
52124;SDS011;38119;52.710;6.398;2023-07-13T01:50:42;9.93;;;3.27;;
52124;SDS011;38119;52.710;6.398;2023-07-13T01:53:08;9.03;;;3.17;;
52124;SDS011;38119;52.710;6.398;2023-07-13T01:55:34;10.50;;;3.40;;
52124;SDS011;38119;52.710;6.398;2023-07-13T01:58:00;14.57;;;3.57;;
52124;SDS011;38119;52.710;6.398;2023-07-13T02:00:26;11.95;;;3.33;;
52124;SDS011;38119;52.710;6.398;2023-07-13T02:02:52;11.77;;;3.30;;
52124;SDS011;38119;52.710;6.398;2023-07-13T02:05:17;9.00;;;2.90;;
52124;SDS011;38119;52.710;6.398;2023-07-13T02:07:43;11.65;;;3.10;;
52124;SDS011;38119;52.710;6.398;2023-07-13T02:10:10;12.70;;;3.57;;
52124;SDS011;38119;52.710;6.398;2023-07-13T02:12:36;11.18;;;3.08;;
52124;SDS011;38119;52.710;6.398;2023-07-13T02:15:02;11.63;;;3.00;;
52124;SDS011;38119;52.710;6.398;2023-07-13T02:17:29;9.60;;;3.13;;
52124;SDS011;38119;52.710;6.398;2023-07-13T02:19:54;11.60;;;3.37;;
52124;SDS011;38119;52.710;6.398;2023-07-13T02:22:20;13.73;;;3.30;;
52124;SDS011;38119;52.710;6.398;2023-07-13T02:24:47;10.50;;;3.20;;
52124;SDS011;38119;52.710;6.398;2023-07-13T02:27:13;12.75;;;3.92;;
52124;SDS011;38119;52.710;6.398;2023-07-13T02:29:38;13.47;;;3.13;;
52124;SDS011;38119;52.710;6.398;2023-07-13T02:32:04;10.43;;;3.33;;
52124;SDS011;38119;52.710;6.398;2023-07-13T02:34:30;12.80;;;3.20;;
52124;SDS011;38119;52.710;6.398;2023-07-13T02:36:56;12.63;;;3.70;;
52124;SDS011;38119;52.710;6.398;2023-07-13T02:39:22;13.53;;;3.43;;
52124;SDS011;38119;52.710;6.398;2023-07-13T02:41:47;12.47;;;3.60;;
52124;SDS011;38119;52.710;6.398;2023-07-13T02:44:14;11.60;;;3.60;;
52124;SDS011;38119;52.710;6.398;2023-07-13T02:46:40;10.13;;;3.47;;
52124;SDS011;38119;52.710;6.398;2023-07-13T02:49:06;16.60;;;3.75;;
52124;SDS011;38119;52.710;6.398;2023-07-13T02:51:32;13.63;;;3.67;;
52124;SDS011;38119;52.710;6.398;2023-07-13T02:53:59;14.02;;;3.83;;
52124;SDS011;38119;52.710;6.398;2023-07-13T02:56:26;12.95;;;3.70;;
52124;SDS011;38119;52.710;6.398;2023-07-13T02:58:53;13.05;;;3.85;;
52124;SDS011;38119;52.710;6.398;2023-07-13T03:01:20;13.27;;;3.53;;
52124;SDS011;38119;52.710;6.398;2023-07-13T03:03:46;13.77;;;4.00;;
52124;SDS011;38119;52.710;6.398;2023-07-13T03:06:14;12.93;;;3.67;;
52124;SDS011;38119;52.710;6.398;2023-07-13T03:08:40;13.55;;;3.83;;
52124;SDS011;38119;52.710;6.398;2023-07-13T03:11:11;12.30;;;4.25;;
52124;SDS011;38119;52.710;6.398;2023-07-13T03:13:39;13.80;;;3.50;;
52124;SDS011;38119;52.710;6.398;2023-07-13T03:16:05;14.00;;;3.75;;
52124;SDS011;38119;52.710;6.398;2023-07-13T03:18:32;13.07;;;3.90;;
52124;SDS011;38119;52.710;6.398;2023-07-13T03:20:58;14.43;;;4.38;;
52124;SDS011;38119;52.710;6.398;2023-07-13T03:23:24;15.20;;;4.03;;
52124;SDS011;38119;52.710;6.398;2023-07-13T03:26:00;14.95;;;4.00;;
52124;SDS011;38119;52.710;6.398;2023-07-13T03:28:27;10.85;;;3.55;;
52124;SDS011;38119;52.710;6.398;2023-07-13T03:31:06;14.83;;;4.10;;
52124;SDS011;38119;52.710;6.398;2023-07-13T03:33:34;13.18;;;3.50;;
52124;SDS011;38119;52.710;6.398;2023-07-13T03:36:00;12.73;;;3.60;;
52124;SDS011;38119;52.710;6.398;2023-07-13T03:38:25;12.23;;;3.90;;
52124;SDS011;38119;52.710;6.398;2023-07-13T03:40:52;12.82;;;3.58;;
52124;SDS011;38119;52.710;6.398;2023-07-13T03:43:18;13.40;;;4.10;;
52124;SDS011;38119;52.710;6.398;2023-07-13T03:45:45;11.43;;;3.78;;
52124;SDS011;38119;52.710;6.398;2023-07-13T03:48:11;12.75;;;3.83;;
52124;SDS011;38119;52.710;6.398;2023-07-13T03:50:37;15.73;;;3.95;;
52124;SDS011;38119;52.710;6.398;2023-07-13T03:53:03;14.43;;;3.83;;
52124;SDS011;38119;52.710;6.398;2023-07-13T03:55:29;12.60;;;3.88;;
52124;SDS011;38119;52.710;6.398;2023-07-13T04:00:51;11.20;;;3.53;;
52124;SDS011;38119;52.710;6.398;2023-07-13T04:03:17;13.20;;;3.90;;
52124;SDS011;38119;52.710;6.398;2023-07-13T04:05:43;13.60;;;3.80;;
52124;SDS011;38119;52.710;6.398;2023-07-13T04:08:08;12.48;;;3.60;;
52124;SDS011;38119;52.710;6.398;2023-07-13T04:10:34;15.30;;;4.40;;
52124;SDS011;38119;52.710;6.398;2023-07-13T04:12:59;13.63;;;3.73;;
52124;SDS011;38119;52.710;6.398;2023-07-13T04:15:25;11.43;;;3.90;;
52124;SDS011;38119;52.710;6.398;2023-07-13T04:17:54;11.25;;;3.72;;
52124;SDS011;38119;52.710;6.398;2023-07-13T04:20:19;11.30;;;4.07;;
52124;SDS011;38119;52.710;6.398;2023-07-13T04:22:46;11.27;;;3.75;;
52124;SDS011;38119;52.710;6.398;2023-07-13T04:25:12;11.33;;;3.83;;
52124;SDS011;38119;52.710;6.398;2023-07-13T04:27:38;13.40;;;4.00;;
52124;SDS011;38119;52.710;6.398;2023-07-13T04:30:05;12.50;;;3.83;;
52124;SDS011;38119;52.710;6.398;2023-07-13T04:32:31;10.88;;;4.10;;
52124;SDS011;38119;52.710;6.398;2023-07-13T04:34:57;11.55;;;3.65;;
52124;SDS011;38119;52.710;6.398;2023-07-13T04:37:24;14.65;;;4.35;;
52124;SDS011;38119;52.710;6.398;2023-07-13T04:39:50;11.87;;;3.77;;
52124;SDS011;38119;52.710;6.398;2023-07-13T04:42:16;12.43;;;3.83;;
52124;SDS011;38119;52.710;6.398;2023-07-13T04:44:41;12.93;;;3.80;;
52124;SDS011;38119;52.710;6.398;2023-07-13T04:47:07;11.20;;;3.60;;
52124;SDS011;38119;52.710;6.398;2023-07-13T04:49:32;12.00;;;4.20;;
52124;SDS011;38119;52.710;6.398;2023-07-13T04:51:58;13.50;;;3.80;;
52124;SDS011;38119;52.710;6.398;2023-07-13T04:54:24;12.17;;;4.30;;
52124;SDS011;38119;52.710;6.398;2023-07-13T04:56:49;12.60;;;4.25;;
52124;SDS011;38119;52.710;6.398;2023-07-13T04:59:15;16.15;;;4.60;;
52124;SDS011;38119;52.710;6.398;2023-07-13T05:01:41;13.25;;;4.15;;
52124;SDS011;38119;52.710;6.398;2023-07-13T05:04:06;12.40;;;4.07;;
52124;SDS011;38119;52.710;6.398;2023-07-13T05:06:32;14.93;;;4.20;;
52124;SDS011;38119;52.710;6.398;2023-07-13T05:08:58;15.80;;;4.50;;
52124;SDS011;38119;52.710;6.398;2023-07-13T05:11:23;11.23;;;3.83;;
52124;SDS011;38119;52.710;6.398;2023-07-13T05:13:49;13.63;;;4.28;;
52124;SDS011;38119;52.710;6.398;2023-07-13T05:16:15;11.82;;;4.18;;
52124;SDS011;38119;52.710;6.398;2023-07-13T05:18:40;15.07;;;3.90;;
52124;SDS011;38119;52.710;6.398;2023-07-13T05:21:07;11.70;;;3.97;;
52124;SDS011;38119;52.710;6.398;2023-07-13T05:23:34;10.98;;;4.40;;
52124;SDS011;38119;52.710;6.398;2023-07-13T05:26:01;16.00;;;4.10;;
52124;SDS011;38119;52.710;6.398;2023-07-13T05:28:28;12.55;;;4.00;;
52124;SDS011;38119;52.710;6.398;2023-07-13T05:30:55;15.25;;;4.38;;
52124;SDS011;38119;52.710;6.398;2023-07-13T05:33:20;13.02;;;4.22;;
52124;SDS011;38119;52.710;6.398;2023-07-13T05:35:46;13.70;;;4.15;;
52124;SDS011;38119;52.710;6.398;2023-07-13T05:38:12;12.67;;;4.10;;
52124;SDS011;38119;52.710;6.398;2023-07-13T05:40:38;14.07;;;4.03;;
52124;SDS011;38119;52.710;6.398;2023-07-13T05:43:04;13.57;;;4.65;;
52124;SDS011;38119;52.710;6.398;2023-07-13T05:45:29;14.75;;;4.38;;
52124;SDS011;38119;52.710;6.398;2023-07-13T05:47:55;14.35;;;4.32;;
52124;SDS011;38119;52.710;6.398;2023-07-13T05:50:21;14.10;;;4.88;;
52124;SDS011;38119;52.710;6.398;2023-07-13T05:52:46;13.38;;;4.50;;
52124;SDS011;38119;52.710;6.398;2023-07-13T05:55:12;12.90;;;4.70;;
52124;SDS011;38119;52.710;6.398;2023-07-13T05:57:38;14.17;;;4.70;;
52124;SDS011;38119;52.710;6.398;2023-07-13T06:00:04;12.17;;;4.13;;
52124;SDS011;38119;52.710;6.398;2023-07-13T06:02:30;13.68;;;3.90;;
52124;SDS011;38119;52.710;6.398;2023-07-13T06:04:55;15.40;;;4.40;;
52124;SDS011;38119;52.710;6.398;2023-07-13T06:07:21;12.47;;;4.13;;
52124;SDS011;38119;52.710;6.398;2023-07-13T06:09:47;14.75;;;4.40;;
52124;SDS011;38119;52.710;6.398;2023-07-13T06:12:12;11.63;;;4.10;;
52124;SDS011;38119;52.710;6.398;2023-07-13T06:14:38;10.63;;;3.88;;
52124;SDS011;38119;52.710;6.398;2023-07-13T06:17:04;13.10;;;4.20;;
52124;SDS011;38119;52.710;6.398;2023-07-13T06:19:30;13.43;;;4.18;;
52124;SDS011;38119;52.710;6.398;2023-07-13T06:21:55;11.73;;;4.22;;
52124;SDS011;38119;52.710;6.398;2023-07-13T06:24:21;15.07;;;4.23;;
52124;SDS011;38119;52.710;6.398;2023-07-13T06:26:47;10.13;;;3.70;;
52124;SDS011;38119;52.710;6.398;2023-07-13T06:29:12;12.57;;;3.90;;
52124;SDS011;38119;52.710;6.398;2023-07-13T06:31:38;13.80;;;4.00;;
52124;SDS011;38119;52.710;6.398;2023-07-13T06:34:04;13.13;;;3.88;;
52124;SDS011;38119;52.710;6.398;2023-07-13T06:36:29;12.82;;;3.70;;
52124;SDS011;38119;52.710;6.398;2023-07-13T06:38:55;12.93;;;3.90;;
52124;SDS011;38119;52.710;6.398;2023-07-13T06:41:20;9.47;;;3.47;;
52124;SDS011;38119;52.710;6.398;2023-07-13T06:43:47;13.18;;;4.05;;
52124;SDS011;38119;52.710;6.398;2023-07-13T06:46:12;11.40;;;3.47;;
52124;SDS011;38119;52.710;6.398;2023-07-13T06:48:38;11.30;;;4.00;;
52124;SDS011;38119;52.710;6.398;2023-07-13T06:51:04;10.03;;;3.70;;
52124;SDS011;38119;52.710;6.398;2023-07-13T06:53:30;13.48;;;4.10;;
52124;SDS011;38119;52.710;6.398;2023-07-13T06:55:55;11.13;;;3.67;;
52124;SDS011;38119;52.710;6.398;2023-07-13T06:58:21;10.43;;;3.72;;
52124;SDS011;38119;52.710;6.398;2023-07-13T07:00:49;15.55;;;4.10;;
52124;SDS011;38119;52.710;6.398;2023-07-13T07:03:18;11.47;;;3.90;;
52124;SDS011;38119;52.710;6.398;2023-07-13T07:05:44;12.97;;;3.80;;
52124;SDS011;38119;52.710;6.398;2023-07-13T07:08:11;13.63;;;4.15;;
52124;SDS011;38119;52.710;6.398;2023-07-13T07:10:36;13.52;;;4.10;;
52124;SDS011;38119;52.710;6.398;2023-07-13T07:13:02;14.38;;;4.20;;
52124;SDS011;38119;52.710;6.398;2023-07-13T07:15:28;13.00;;;4.70;;
52124;SDS011;38119;52.710;6.398;2023-07-13T07:17:54;14.23;;;4.03;;
52124;SDS011;38119;52.710;6.398;2023-07-13T07:20:20;13.75;;;4.35;;
52124;SDS011;38119;52.710;6.398;2023-07-13T07:22:46;13.75;;;4.20;;
52124;SDS011;38119;52.710;6.398;2023-07-13T07:25:12;13.02;;;4.13;;
52124;SDS011;38119;52.710;6.398;2023-07-13T07:27:38;12.60;;;4.57;;
52124;SDS011;38119;52.710;6.398;2023-07-13T07:30:04;13.87;;;4.27;;
52124;SDS011;38119;52.710;6.398;2023-07-13T07:32:31;13.60;;;4.75;;
52124;SDS011;38119;52.710;6.398;2023-07-13T07:34:57;13.20;;;4.45;;
52124;SDS011;38119;52.710;6.398;2023-07-13T07:37:23;13.32;;;4.25;;
52124;SDS011;38119;52.710;6.398;2023-07-13T07:39:49;17.20;;;4.93;;
52124;SDS011;38119;52.710;6.398;2023-07-13T07:42:15;13.77;;;4.47;;
52124;SDS011;38119;52.710;6.398;2023-07-13T07:44:41;14.15;;;4.90;;
52124;SDS011;38119;52.710;6.398;2023-07-13T07:47:08;17.20;;;4.90;;
52124;SDS011;38119;52.710;6.398;2023-07-13T07:49:34;17.48;;;5.18;;
52124;SDS011;38119;52.710;6.398;2023-07-13T07:52:01;15.65;;;5.13;;
52124;SDS011;38119;52.710;6.398;2023-07-13T07:54:27;13.48;;;4.57;;
52124;SDS011;38119;52.710;6.398;2023-07-13T07:56:53;17.83;;;5.03;;
52124;SDS011;38119;52.710;6.398;2023-07-13T07:59:18;13.10;;;4.80;;
52124;SDS011;38119;52.710;6.398;2023-07-13T08:01:44;18.00;;;5.23;;
52124;SDS011;38119;52.710;6.398;2023-07-13T08:04:11;15.60;;;4.82;;
52124;SDS011;38119;52.710;6.398;2023-07-13T08:06:37;13.40;;;5.03;;
52124;SDS011;38119;52.710;6.398;2023-07-13T08:09:02;16.23;;;5.20;;
52124;SDS011;38119;52.710;6.398;2023-07-13T08:11:29;14.00;;;4.93;;
52124;SDS011;38119;52.710;6.398;2023-07-13T08:13:55;15.32;;;4.88;;
52124;SDS011;38119;52.710;6.398;2023-07-13T08:16:21;13.90;;;5.38;;
52124;SDS011;38119;52.710;6.398;2023-07-13T08:18:48;15.25;;;5.07;;
52124;SDS011;38119;52.710;6.398;2023-07-13T08:21:14;13.00;;;5.20;;
52124;SDS011;38119;52.710;6.398;2023-07-13T08:23:39;14.00;;;4.90;;
52124;SDS011;38119;52.710;6.398;2023-07-13T08:26:05;13.63;;;5.07;;
52124;SDS011;38119;52.710;6.398;2023-07-13T08:28:32;12.77;;;4.90;;
52124;SDS011;38119;52.710;6.398;2023-07-13T08:31:05;14.98;;;5.82;;
52124;SDS011;38119;52.710;6.398;2023-07-13T08:33:35;16.75;;;5.25;;
52124;SDS011;38119;52.710;6.398;2023-07-13T08:36:01;12.40;;;5.72;;
52124;SDS011;38119;52.710;6.398;2023-07-13T08:38:27;13.80;;;5.13;;
52124;SDS011;38119;52.710;6.398;2023-07-13T08:40:54;11.30;;;4.77;;
52124;SDS011;38119;52.710;6.398;2023-07-13T08:43:31;14.82;;;5.03;;
52124;SDS011;38119;52.710;6.398;2023-07-13T08:46:14;13.70;;;5.50;;
52124;SDS011;38119;52.710;6.398;2023-07-13T08:48:50;13.43;;;5.30;;
52124;SDS011;38119;52.710;6.398;2023-07-13T08:51:27;14.40;;;5.43;;
52124;SDS011;38119;52.710;6.398;2023-07-13T08:54:00;21.23;;;6.20;;
52124;SDS011;38119;52.710;6.398;2023-07-13T08:56:28;12.73;;;4.93;;
52124;SDS011;38119;52.710;6.398;2023-07-13T08:58:56;8.35;;;3.10;;
52124;SDS011;38119;52.710;6.398;2023-07-13T09:01:27;5.90;;;3.00;;
52124;SDS011;38119;52.710;6.398;2023-07-13T09:04:22;6.25;;;2.72;;
52124;SDS011;38119;52.710;6.398;2023-07-13T09:12:27;4.82;;;2.30;;
52124;SDS011;38119;52.710;6.398;2023-07-13T09:15:27;5.53;;;2.40;;
52124;SDS011;38119;52.710;6.398;2023-07-13T09:17:56;4.70;;;2.30;;
52124;SDS011;38119;52.710;6.398;2023-07-13T09:21:03;5.20;;;2.65;;
52124;SDS011;38119;52.710;6.398;2023-07-13T09:23:27;4.60;;;2.50;;
52124;SDS011;38119;52.710;6.398;2023-07-13T09:25:58;5.00;;;2.50;;
52124;SDS011;38119;52.710;6.398;2023-07-13T09:28:33;3.28;;;2.30;;
52124;SDS011;38119;52.710;6.398;2023-07-13T09:31:09;3.28;;;2.40;;
52124;SDS011;38119;52.710;6.398;2023-07-13T09:33:39;4.30;;;2.40;;
52124;SDS011;38119;52.710;6.398;2023-07-13T09:36:19;3.33;;;2.35;;
52124;SDS011;38119;52.710;6.398;2023-07-13T09:38:49;4.40;;;2.47;;
52124;SDS011;38119;52.710;6.398;2023-07-13T09:44:35;4.57;;;2.30;;
52124;SDS011;38119;52.710;6.398;2023-07-13T09:47:15;3.87;;;2.50;;
52124;SDS011;38119;52.710;6.398;2023-07-13T09:49:42;5.17;;;2.50;;
52124;SDS011;38119;52.710;6.398;2023-07-13T09:52:12;5.50;;;2.85;;
52124;SDS011;38119;52.710;6.398;2023-07-13T09:54:44;6.03;;;2.83;;
52124;SDS011;38119;52.710;6.398;2023-07-13T09:57:18;5.50;;;3.00;;
52124;SDS011;38119;52.710;6.398;2023-07-13T09:59:49;5.63;;;3.00;;
52124;SDS011;38119;52.710;6.398;2023-07-13T10:02:30;4.97;;;2.60;;
52124;SDS011;38119;52.710;6.398;2023-07-13T10:07:39;4.93;;;2.80;;
52124;SDS011;38119;52.710;6.398;2023-07-13T10:10:22;4.60;;;2.80;;
52124;SDS011;38119;52.710;6.398;2023-07-13T10:12:48;8.18;;;3.50;;
52124;SDS011;38119;52.710;6.398;2023-07-13T10:15:18;7.18;;;3.65;;
52124;SDS011;38119;52.710;6.398;2023-07-13T10:17:46;9.60;;;5.00;;
52124;SDS011;38119;52.710;6.398;2023-07-13T10:20:13;9.98;;;5.00;;
52124;SDS011;38119;52.710;6.398;2023-07-13T10:25:28;8.63;;;5.77;;
52124;SDS011;38119;52.710;6.398;2023-07-13T10:28:29;9.50;;;6.37;;
52124;SDS011;38119;52.710;6.398;2023-07-13T10:30:58;11.25;;;6.85;;
52124;SDS011;38119;52.710;6.398;2023-07-13T10:33:26;9.50;;;5.95;;
52124;SDS011;38119;52.710;6.398;2023-07-13T10:35:54;11.32;;;6.20;;
52124;SDS011;38119;52.710;6.398;2023-07-13T10:38:29;9.30;;;6.40;;
52124;SDS011;38119;52.710;6.398;2023-07-13T10:43:28;11.55;;;7.60;;
52124;SDS011;38119;52.710;6.398;2023-07-13T10:45:59;11.70;;;7.20;;
52124;SDS011;38119;52.710;6.398;2023-07-13T10:48:42;10.15;;;6.78;;
52124;SDS011;38119;52.710;6.398;2023-07-13T10:51:10;10.73;;;7.50;;
52124;SDS011;38119;52.710;6.398;2023-07-13T10:53:39;15.60;;;7.70;;
52124;SDS011;38119;52.710;6.398;2023-07-13T10:56:27;9.77;;;4.35;;
52124;SDS011;38119;52.710;6.398;2023-07-13T10:59:01;6.65;;;3.20;;
52124;SDS011;38119;52.710;6.398;2023-07-13T11:02:21;4.70;;;2.50;;
52124;SDS011;38119;52.710;6.398;2023-07-13T11:04:42;5.13;;;2.47;;
52124;SDS011;38119;52.710;6.398;2023-07-13T11:07:21;4.35;;;2.45;;
52124;SDS011;38119;52.710;6.398;2023-07-13T11:09:56;5.78;;;2.70;;
52124;SDS011;38119;52.710;6.398;2023-07-13T11:19:53;6.10;;;3.13;;
52124;SDS011;38119;52.710;6.398;2023-07-13T11:22:41;6.45;;;3.83;;
52124;SDS011;38119;52.710;6.398;2023-07-13T11:28:04;6.28;;;3.90;;
52124;SDS011;38119;52.710;6.398;2023-07-13T11:30:35;7.20;;;4.28;;
52124;SDS011;38119;52.710;6.398;2023-07-13T11:38:30;7.15;;;4.50;;
52124;SDS011;38119;52.710;6.398;2023-07-13T11:41:06;7.07;;;4.57;;
52124;SDS011;38119;52.710;6.398;2023-07-13T11:43:41;7.95;;;4.45;;
52124;SDS011;38119;52.710;6.398;2023-07-13T11:48:41;8.98;;;4.93;;
52124;SDS011;38119;52.710;6.398;2023-07-13T11:51:13;7.28;;;4.28;;
52124;SDS011;38119;52.710;6.398;2023-07-13T11:53:59;7.68;;;4.03;;
52124;SDS011;38119;52.710;6.398;2023-07-13T11:56:30;6.50;;;3.90;;
52124;SDS011;38119;52.710;6.398;2023-07-13T11:59:04;8.85;;;4.43;;
52124;SDS011;38119;52.710;6.398;2023-07-13T12:01:36;8.43;;;5.20;;
52124;SDS011;38119;52.710;6.398;2023-07-13T12:04:20;8.80;;;4.68;;
52124;SDS011;38119;52.710;6.398;2023-07-13T12:07:11;9.25;;;4.55;;
52124;SDS011;38119;52.710;6.398;2023-07-13T12:09:42;8.52;;;4.50;;
52124;SDS011;38119;52.710;6.398;2023-07-13T12:12:19;6.07;;;2.77;;
52124;SDS011;38119;52.710;6.398;2023-07-13T12:14:51;5.30;;;2.67;;
52124;SDS011;38119;52.710;6.398;2023-07-13T12:17:19;6.55;;;2.40;;
52124;SDS011;38119;52.710;6.398;2023-07-13T12:19:48;5.90;;;2.40;;
52124;SDS011;38119;52.710;6.398;2023-07-13T12:22:16;6.53;;;2.47;;
52124;SDS011;38119;52.710;6.398;2023-07-13T12:24:45;10.20;;;2.78;;
52124;SDS011;38119;52.710;6.398;2023-07-13T12:27:16;6.40;;;2.60;;
52124;SDS011;38119;52.710;6.398;2023-07-13T12:29:52;5.53;;;2.43;;
52124;SDS011;38119;52.710;6.398;2023-07-13T12:32:25;6.68;;;2.70;;
52124;SDS011;38119;52.710;6.398;2023-07-13T12:34:56;6.22;;;2.63;;
52124;SDS011;38119;52.710;6.398;2023-07-13T12:37:42;7.20;;;2.60;;
52124;SDS011;38119;52.710;6.398;2023-07-13T12:40:19;5.17;;;2.23;;
52124;SDS011;38119;52.710;6.398;2023-07-13T12:42:49;6.22;;;2.35;;
52124;SDS011;38119;52.710;6.398;2023-07-13T12:45:24;5.87;;;2.10;;
52124;SDS011;38119;52.710;6.398;2023-07-13T12:47:54;4.80;;;2.40;;
52124;SDS011;38119;52.710;6.398;2023-07-13T12:50:28;6.60;;;2.50;;
52124;SDS011;38119;52.710;6.398;2023-07-13T12:53:01;5.13;;;2.15;;
52124;SDS011;38119;52.710;6.398;2023-07-13T12:55:47;6.18;;;2.50;;
52124;SDS011;38119;52.710;6.398;2023-07-13T12:58:32;7.20;;;2.50;;
52124;SDS011;38119;52.710;6.398;2023-07-13T13:01:03;5.97;;;2.15;;
52124;SDS011;38119;52.710;6.398;2023-07-13T13:03:31;4.38;;;2.20;;
52124;SDS011;38119;52.710;6.398;2023-07-13T13:08:55;4.75;;;2.25;;
52124;SDS011;38119;52.710;6.398;2023-07-13T13:11:23;6.43;;;2.40;;
52124;SDS011;38119;52.710;6.398;2023-07-13T13:13:51;5.07;;;2.30;;
52124;SDS011;38119;52.710;6.398;2023-07-13T13:18:47;4.72;;;2.10;;
52124;SDS011;38119;52.710;6.398;2023-07-13T13:21:17;5.43;;;2.20;;
52124;SDS011;38119;52.710;6.398;2023-07-13T13:23:44;5.25;;;2.00;;
52124;SDS011;38119;52.710;6.398;2023-07-13T13:26:12;4.87;;;2.20;;
52124;SDS011;38119;52.710;6.398;2023-07-13T13:28:40;6.53;;;2.22;;
52124;SDS011;38119;52.710;6.398;2023-07-13T13:31:07;7.82;;;2.20;;
52124;SDS011;38119;52.710;6.398;2023-07-13T13:33:37;4.43;;;1.80;;
52124;SDS011;38119;52.710;6.398;2023-07-13T13:36:12;4.77;;;1.90;;
52124;SDS011;38119;52.710;6.398;2023-07-13T13:38:40;5.07;;;1.95;;
52124;SDS011;38119;52.710;6.398;2023-07-13T13:41:07;4.78;;;1.90;;
52124;SDS011;38119;52.710;6.398;2023-07-13T13:43:38;4.65;;;2.08;;
52124;SDS011;38119;52.710;6.398;2023-07-13T13:46:09;8.05;;;1.90;;
52124;SDS011;38119;52.710;6.398;2023-07-13T13:48:39;5.95;;;2.10;;
52124;SDS011;38119;52.710;6.398;2023-07-13T13:54:00;4.85;;;1.90;;
52124;SDS011;38119;52.710;6.398;2023-07-13T13:56:26;3.90;;;1.77;;
52124;SDS011;38119;52.710;6.398;2023-07-13T13:58:52;4.73;;;1.73;;
52124;SDS011;38119;52.710;6.398;2023-07-13T14:01:19;3.63;;;1.80;;
52124;SDS011;38119;52.710;6.398;2023-07-13T14:03:47;5.80;;;1.70;;
52124;SDS011;38119;52.710;6.398;2023-07-13T14:06:19;4.40;;;1.80;;
52124;SDS011;38119;52.710;6.398;2023-07-13T14:08:45;3.83;;;1.90;;
52124;SDS011;38119;52.710;6.398;2023-07-13T14:11:16;6.43;;;1.95;;
52124;SDS011;38119;52.710;6.398;2023-07-13T14:13:47;3.05;;;1.70;;
52124;SDS011;38119;52.710;6.398;2023-07-13T14:16:18;5.03;;;2.00;;
52124;SDS011;38119;52.710;6.398;2023-07-13T14:18:46;6.25;;;2.03;;
52124;SDS011;38119;52.710;6.398;2023-07-13T14:21:14;5.30;;;2.10;;
52124;SDS011;38119;52.710;6.398;2023-07-13T14:23:44;5.55;;;2.22;;
52124;SDS011;38119;52.710;6.398;2023-07-13T14:26:18;4.55;;;2.00;;
52124;SDS011;38119;52.710;6.398;2023-07-13T14:28:47;5.05;;;2.10;;
52124;SDS011;38119;52.710;6.398;2023-07-13T14:31:14;6.30;;;2.05;;
52124;SDS011;38119;52.710;6.398;2023-07-13T14:33:41;4.93;;;2.10;;
52124;SDS011;38119;52.710;6.398;2023-07-13T14:36:21;6.15;;;2.08;;
52124;SDS011;38119;52.710;6.398;2023-07-13T14:39:01;6.45;;;2.05;;
52124;SDS011;38119;52.710;6.398;2023-07-13T14:41:50;5.18;;;1.90;;
52124;SDS011;38119;52.710;6.398;2023-07-13T14:44:19;5.03;;;2.00;;
52124;SDS011;38119;52.710;6.398;2023-07-13T14:46:48;6.75;;;1.90;;
52124;SDS011;38119;52.710;6.398;2023-07-13T14:49:16;6.60;;;2.15;;
52124;SDS011;38119;52.710;6.398;2023-07-13T14:52:01;5.47;;;2.15;;
52124;SDS011;38119;52.710;6.398;2023-07-13T14:54:35;5.00;;;2.05;;
52124;SDS011;38119;52.710;6.398;2023-07-13T14:57:08;6.10;;;2.30;;
52124;SDS011;38119;52.710;6.398;2023-07-13T14:59:42;4.35;;;2.00;;
52124;SDS011;38119;52.710;6.398;2023-07-13T15:02:16;6.50;;;2.25;;
52124;SDS011;38119;52.710;6.398;2023-07-13T15:04:46;5.10;;;1.90;;
52124;SDS011;38119;52.710;6.398;2023-07-13T15:07:12;5.13;;;2.08;;
52124;SDS011;38119;52.710;6.398;2023-07-13T15:09:40;6.37;;;2.17;;
52124;SDS011;38119;52.710;6.398;2023-07-13T15:12:06;5.43;;;2.10;;
52124;SDS011;38119;52.710;6.398;2023-07-13T15:14:32;7.47;;;2.00;;
52124;SDS011;38119;52.710;6.398;2023-07-13T15:16:58;4.60;;;2.20;;
52124;SDS011;38119;52.710;6.398;2023-07-13T15:19:24;8.30;;;2.22;;
52124;SDS011;38119;52.710;6.398;2023-07-13T15:21:51;5.40;;;2.22;;
52124;SDS011;38119;52.710;6.398;2023-07-13T15:24:19;5.35;;;2.10;;
52124;SDS011;38119;52.710;6.398;2023-07-13T15:26:46;5.55;;;2.03;;
52124;SDS011;38119;52.710;6.398;2023-07-13T15:29:14;5.32;;;2.25;;
52124;SDS011;38119;52.710;6.398;2023-07-13T15:31:40;4.65;;;2.15;;
52124;SDS011;38119;52.710;6.398;2023-07-13T15:34:10;5.57;;;2.38;;
52124;SDS011;38119;52.710;6.398;2023-07-13T15:36:38;5.68;;;2.47;;
52124;SDS011;38119;52.710;6.398;2023-07-13T15:39:05;6.68;;;2.45;;